createdAt,value
2019-02-12T00:02:29.796Z,100761.80
2019-02-12T00:05:02.023Z,100759.63
2019-02-12T00:07:34.288Z,100766.17
2019-02-12T00:10:07.000Z,100765.94
2019-02-12T00:12:39.305Z,100765.02
2019-02-12T00:15:11.441Z,100764.95
2019-02-12T00:17:43.690Z,100773.81
2019-02-12T00:20:15.826Z,100779.23
2019-02-12T00:22:48.061Z,100781.31
2019-02-12T00:25:20.282Z,100784.17
2019-02-12T00:27:52.597Z,100783.53
2019-02-12T00:30:24.882Z,100786.94
2019-02-12T00:32:57.156Z,100785.93
2019-02-12T00:35:29.295Z,100787.47
2019-02-12T00:38:01.506Z,100793.73
2019-02-12T00:40:33.763Z,100790.88
2019-02-12T00:43:05.932Z,100792.30
2019-02-12T00:45:38.221Z,100801.75
2019-02-12T00:48:10.525Z,100800.94
2019-02-12T00:50:42.659Z,100806.71
2019-02-12T00:53:14.996Z,100805.38
2019-02-12T00:55:47.125Z,100812.81
2019-02-12T00:58:19.295Z,100815.80
2019-02-12T01:00:51.519Z,100812.97
2019-02-12T01:03:24.844Z,100815.19
2019-02-12T01:05:57.127Z,100816.48
2019-02-12T01:08:29.523Z,100816.92
2019-02-12T01:11:01.665Z,100811.56
2019-02-12T01:13:33.830Z,100808.98
2019-02-12T01:16:06.051Z,100809.00
2019-02-12T01:18:38.435Z,100807.03
2019-02-12T01:21:10.566Z,100805.42
2019-02-12T01:23:42.877Z,100803.49
2019-02-12T01:26:15.171Z,100798.67
2019-02-12T01:28:47.428Z,100806.39
2019-02-12T01:31:19.642Z,100800.46
2019-02-12T01:33:51.810Z,100803.11
2019-02-12T01:36:24.015Z,100811.62
2019-02-12T01:38:56.620Z,100819.14
2019-02-12T01:41:28.845Z,100820.66
2019-02-12T01:44:01.013Z,100819.31
2019-02-12T01:46:33.157Z,100813.09
2019-02-12T01:49:05.307Z,100825.89
2019-02-12T01:51:38.680Z,100826.53
2019-02-12T01:54:10.847Z,100831.67
2019-02-12T01:56:43.045Z,100832.63
2019-02-12T01:59:15.281Z,100827.02
2019-02-12T02:01:47.432Z,100837.70
2019-02-12T02:04:20.831Z,100841.52
2019-02-12T02:06:52.952Z,100845.14
2019-02-12T02:09:29.041Z,100844.73
2019-02-12T02:11:59.234Z,100852.94
2019-02-12T02:14:32.291Z,100851.81
2019-02-12T02:17:04.492Z,100851.63
2019-02-12T02:19:36.657Z,100855.98
2019-02-12T02:22:08.837Z,100858.28
2019-02-12T02:24:41.071Z,100856.72
2019-02-12T02:27:13.275Z,100865.47
2019-02-12T02:29:45.507Z,100873.02
2019-02-12T02:32:17.797Z,100873.47
2019-02-12T02:34:50.198Z,100875.87
2019-02-12T02:37:22.402Z,100877.60
2019-02-12T02:39:54.655Z,100879.12
2019-02-12T02:42:26.839Z,100885.02
2019-02-12T02:44:59.091Z,100880.16
2019-02-12T02:47:31.412Z,100882.41
2019-02-12T02:50:03.689Z,100882.73
2019-02-12T02:52:36.055Z,100885.92
2019-02-12T02:55:09.037Z,100888.12
2019-02-12T02:57:42.707Z,100892.25
2019-02-12T03:00:14.946Z,100899.05
2019-02-12T03:02:47.761Z,100905.14
2019-02-12T03:05:19.930Z,100907.66
2019-02-12T03:07:52.088Z,100904.81
2019-02-12T03:10:24.247Z,100907.83
2019-02-12T03:12:56.323Z,100900.27
2019-02-12T03:15:28.493Z,100903.92
2019-02-12T03:18:00.612Z,100908.45
2019-02-12T03:20:32.767Z,100905.70
2019-02-12T03:23:04.983Z,100905.03
2019-02-12T03:25:37.386Z,100905.22
2019-02-12T03:28:09.582Z,100904.91
2019-02-12T03:30:41.848Z,100908.56
2019-02-12T03:33:13.982Z,100905.09
2019-02-12T03:35:46.142Z,100905.14
2019-02-12T03:38:18.466Z,100909.89
2019-02-12T03:40:50.627Z,100905.69
2019-02-12T03:43:22.821Z,100898.39
2019-02-12T03:45:55.105Z,100895.08
2019-02-12T03:48:27.326Z,100892.79
2019-02-12T03:50:59.567Z,100889.30
2019-02-12T03:53:31.709Z,100892.30
2019-02-12T03:56:03.872Z,100890.77
2019-02-12T03:58:36.090Z,100901.84
2019-02-12T04:01:08.332Z,100898.25
2019-02-12T04:03:40.498Z,100909.03
2019-02-12T04:06:12.773Z,100909.19
2019-02-12T04:08:44.898Z,100909.16
2019-02-12T04:11:17.062Z,100910.55
2019-02-12T04:13:49.278Z,100909.28
2019-02-12T04:16:21.532Z,100916.13
2019-02-12T04:18:53.667Z,100919.89
2019-02-12T04:21:25.828Z,100927.03
2019-02-12T04:23:57.992Z,100929.39
2019-02-12T04:26:30.274Z,100929.43
2019-02-12T04:29:02.454Z,100928.30
2019-02-12T04:31:34.638Z,100922.76
2019-02-12T04:34:06.768Z,100928.09
2019-02-12T04:36:39.348Z,100925.48
2019-02-12T04:39:11.507Z,100937.20
2019-02-12T04:41:43.686Z,100940.09
2019-02-12T04:44:15.925Z,100944.89
2019-02-12T04:46:48.079Z,100942.42
2019-02-12T04:49:20.206Z,100945.81
2019-02-12T04:51:53.485Z,100935.80
2019-02-12T04:54:25.709Z,100937.81
2019-02-12T04:56:58.049Z,100937.27
2019-02-12T04:59:30.765Z,100931.16
2019-02-12T05:02:02.978Z,100938.23
2019-02-12T05:04:35.368Z,100946.45
2019-02-12T05:07:07.518Z,100939.49
2019-02-12T05:09:42.584Z,100942.78
2019-02-12T05:12:17.603Z,100943.67
2019-02-12T05:14:49.963Z,100952.13
2019-02-12T05:17:22.175Z,100948.52
2019-02-12T05:19:54.356Z,100949.31
2019-02-12T05:22:26.557Z,100954.94
2019-02-12T05:24:58.844Z,100959.10
2019-02-12T05:27:31.420Z,100955.77
2019-02-12T05:30:03.742Z,100954.98
2019-02-12T05:32:36.019Z,100958.47
2019-02-12T05:35:08.434Z,100961.48
2019-02-12T05:37:40.584Z,100965.55
2019-02-12T05:40:12.759Z,100958.70
2019-02-12T05:42:45.070Z,100958.18
2019-02-12T05:45:17.311Z,100948.38
2019-02-12T05:47:49.559Z,100959.97
2019-02-12T05:50:21.863Z,100958.70
2019-02-12T05:52:55.085Z,100968.75
2019-02-12T05:55:27.502Z,100960.69
2019-02-12T05:57:59.628Z,100963.03
2019-02-12T06:00:34.061Z,100956.91
2019-02-12T06:03:06.377Z,100956.44
2019-02-12T06:05:38.536Z,100964.70
2019-02-12T06:08:10.741Z,100966.38
2019-02-12T06:10:44.589Z,100956.31
2019-02-12T06:13:16.772Z,100962.13
2019-02-12T06:15:49.064Z,100965.36
2019-02-12T06:18:21.281Z,100967.97
2019-02-12T06:20:53.456Z,100964.90
2019-02-12T06:23:25.595Z,100973.56
2019-02-12T06:25:57.756Z,100975.59
2019-02-12T06:28:29.969Z,100979.23
2019-02-12T06:31:02.182Z,100978.82
2019-02-12T06:33:35.410Z,100978.33
2019-02-12T06:36:07.699Z,100975.63
2019-02-12T06:38:40.013Z,100977.48
2019-02-12T06:41:15.792Z,100983.03
2019-02-12T06:43:48.179Z,100992.31
2019-02-12T06:46:20.334Z,100996.23
2019-02-12T06:48:52.546Z,100996.58
2019-02-12T06:51:24.692Z,101003.96
2019-02-12T06:53:56.920Z,101006.57
2019-02-12T06:56:29.109Z,101011.39
2019-02-12T06:59:01.407Z,101016.99
2019-02-12T07:01:33.519Z,101025.62
2019-02-12T07:04:23.536Z,101022.98
2019-02-12T07:07:40.753Z,101019.72
2019-02-12T07:10:23.383Z,101019.54
2019-02-12T07:13:40.344Z,101023.92
2019-02-12T07:17:22.557Z,101028.21
2019-02-12T07:20:34.398Z,101037.55
2019-02-12T07:24:55.487Z,101043.02
2019-02-12T07:28:14.965Z,101051.77
2019-02-12T07:31:45.312Z,101052.89
2019-02-12T07:35:05.561Z,101057.59
2019-02-12T07:38:41.310Z,101063.41
2019-02-12T07:42:15.984Z,101073.22
2019-02-12T07:45:40.835Z,101076.20
2019-02-12T07:49:05.818Z,101070.50
2019-02-12T07:52:40.869Z,101069.90
2019-02-12T07:55:59.649Z,101078.91
2019-02-12T07:59:23.247Z,101077.48
2019-02-12T08:02:33.902Z,101079.31
2019-02-12T08:06:04.031Z,101086.99
2019-02-12T08:09:19.523Z,101088.13
2019-02-12T08:12:33.836Z,101087.87
2019-02-12T08:15:37.578Z,101094.81
2019-02-12T08:18:37.565Z,101096.45
2019-02-12T08:22:15.300Z,101093.59
2019-02-12T08:25:45.823Z,101100.27
2019-02-12T08:29:04.980Z,101105.84
2019-02-12T08:32:29.781Z,101111.30
2019-02-12T08:36:02.803Z,101118.03
2019-02-12T08:39:40.414Z,101114.44
2019-02-12T08:43:15.144Z,101113.88
2019-02-12T08:46:42.746Z,101116.67
2019-02-12T08:49:54.718Z,101118.63
2019-02-12T08:53:22.202Z,101123.92
2019-02-12T08:56:49.294Z,101120.84
2019-02-12T08:59:56.620Z,101125.50
2019-02-12T09:03:42.031Z,101127.46
2019-02-12T09:07:00.646Z,101122.56
2019-02-12T09:10:39.437Z,101120.29
2019-02-12T09:13:38.570Z,101128.87
2019-02-12T09:17:15.670Z,101132.49
2019-02-12T09:20:53.023Z,101141.97
2019-02-12T09:24:21.248Z,101152.41
2019-02-12T09:27:25.083Z,101158.53
2019-02-12T09:30:48.629Z,101161.70
2019-02-12T09:34:10.177Z,101164.70
2019-02-12T09:38:22.449Z,101165.70
2019-02-12T09:41:23.146Z,101167.70
2019-02-12T09:44:39.712Z,101168.45
2019-02-12T09:47:45.291Z,101173.27
2019-02-12T09:50:52.259Z,101171.53
2019-02-12T09:54:40.312Z,101171.13
2019-02-12T09:58:15.968Z,101173.53
2019-02-12T10:01:12.608Z,101173.16
2019-02-12T10:04:38.150Z,101172.40
2019-02-12T10:07:30.439Z,101176.34
2019-02-12T10:10:55.560Z,101184.91
2019-02-12T10:14:06.989Z,101188.98
2019-02-12T10:16:57.071Z,101190.48
2019-02-12T10:20:08.956Z,101194.14
2019-02-12T10:23:59.823Z,101193.35
2019-02-12T10:26:32.769Z,101191.52
2019-02-12T10:29:56.902Z,101183.69
2019-02-12T10:32:27.182Z,101191.97
2019-02-12T10:34:59.479Z,101190.08
2019-02-12T10:37:31.763Z,101192.41
2019-02-12T10:40:04.311Z,101194.61
2019-02-12T10:42:37.624Z,101194.55
2019-02-12T10:45:09.815Z,101187.05
2019-02-12T10:47:41.997Z,101197.59
2019-02-12T10:50:14.306Z,101201.45
2019-02-12T10:52:46.509Z,101205.67
2019-02-12T10:55:18.698Z,101209.05
2019-02-12T10:57:50.900Z,101214.06
2019-02-12T11:00:23.063Z,101214.27
2019-02-12T11:02:55.358Z,101212.27
2019-02-12T11:05:27.523Z,101217.91
2019-02-12T11:07:59.909Z,101215.73
2019-02-12T11:10:32.113Z,101216.45
2019-02-12T11:13:04.258Z,101217.34
2019-02-12T11:15:36.459Z,101221.25
2019-02-12T11:18:08.702Z,101216.97
2019-02-12T11:20:40.857Z,101217.20
2019-02-12T11:23:12.991Z,101213.30
2019-02-12T11:25:45.144Z,101221.09
2019-02-12T11:28:18.410Z,101221.34
2019-02-12T11:30:50.563Z,101220.41
2019-02-12T11:33:22.693Z,101215.13
2019-02-12T11:35:54.862Z,101217.36
2019-02-12T11:38:26.995Z,101216.71
2019-02-12T11:40:59.227Z,101214.89
2019-02-12T11:43:32.336Z,101211.87
2019-02-12T11:46:04.574Z,101212.98
2019-02-12T11:48:36.697Z,101215.21
2019-02-12T11:51:08.903Z,101209.59
2019-02-12T11:53:41.270Z,101217.55
2019-02-12T11:56:13.511Z,101220.56
2019-02-12T11:58:45.634Z,101223.77
2019-02-12T12:01:22.050Z,101214.14
2019-02-12T12:03:54.200Z,101214.19
2019-02-12T12:06:26.430Z,101212.15
2019-02-12T12:08:58.594Z,101207.58
2019-02-12T12:11:30.758Z,101205.58
2019-02-12T12:14:02.948Z,101212.84
2019-02-12T12:16:35.181Z,101204.76
2019-02-12T12:19:07.399Z,101200.75
2019-02-12T12:21:39.553Z,101198.43
2019-02-12T12:24:11.930Z,101199.19
2019-02-12T12:26:44.089Z,101199.30
2019-02-12T12:29:16.212Z,101198.02
2019-02-12T12:31:48.373Z,101195.83
2019-02-12T12:34:20.507Z,101200.50
2019-02-12T12:36:52.673Z,101195.98
2019-02-12T12:39:24.822Z,101194.61
2019-02-12T12:41:56.988Z,101200.63
2019-02-12T12:44:29.283Z,101196.97
2019-02-12T12:47:01.530Z,101191.23
2019-02-12T12:49:33.667Z,101192.41
2019-02-12T12:52:05.833Z,101192.41
2019-02-12T12:54:38.064Z,101195.52
2019-02-12T12:57:10.246Z,101195.50
2019-02-12T12:59:42.461Z,101195.25
2019-02-12T13:02:15.641Z,101193.11
2019-02-12T13:04:48.059Z,101196.77
2019-02-12T13:07:20.150Z,101199.23
2019-02-12T13:09:52.428Z,101202.47
2019-02-12T13:12:24.595Z,101197.63
2019-02-12T13:14:56.804Z,101199.00
2019-02-12T13:17:29.050Z,101194.62
2019-02-12T13:20:01.740Z,101199.11
2019-02-12T13:22:34.224Z,101200.66
2019-02-12T13:25:08.951Z,101198.53
2019-02-12T13:27:41.280Z,101199.80
2019-02-12T13:30:16.759Z,101203.20
2019-02-12T13:32:49.126Z,101206.72
2019-02-12T13:35:22.511Z,101204.41
2019-02-12T13:37:55.227Z,101206.16
2019-02-12T13:40:27.914Z,101202.03
2019-02-12T13:43:00.258Z,101203.09
2019-02-12T13:45:32.593Z,101204.32
2019-02-12T13:48:04.949Z,101199.55
2019-02-12T13:50:37.380Z,101202.13
2019-02-12T13:53:09.652Z,101197.20
2019-02-12T13:55:41.988Z,101193.62
2019-02-12T13:58:14.305Z,101199.61
2019-02-12T14:00:46.622Z,101199.52
2019-02-12T14:03:22.473Z,101198.31
2019-02-12T14:05:53.199Z,101197.08
2019-02-12T14:08:25.776Z,101195.98
2019-02-12T14:11:00.926Z,101196.48
2019-02-12T14:13:33.420Z,101198.80
2019-02-12T14:16:05.648Z,101199.70
2019-02-12T14:18:38.435Z,101201.12
2019-02-12T14:21:10.792Z,101197.04
2019-02-12T14:23:43.128Z,101204.93
2019-02-12T14:26:15.344Z,101201.11
2019-02-12T14:28:47.753Z,101206.59
2019-02-12T14:31:20.094Z,101211.06
2019-02-12T14:33:52.519Z,101212.23
2019-02-12T14:36:25.056Z,101216.13
2019-02-12T14:38:57.473Z,101218.55
2019-02-12T14:41:30.253Z,101214.14
2019-02-12T14:44:02.641Z,101215.28
2019-02-12T14:46:35.244Z,101214.32
2019-02-12T14:49:07.948Z,101212.19
2019-02-12T14:51:40.242Z,101212.67
2019-02-12T14:54:12.522Z,101205.59
2019-02-12T14:56:44.913Z,101209.34
2019-02-12T14:59:17.248Z,101207.09
2019-02-12T15:01:50.132Z,101212.28
2019-02-12T15:04:22.562Z,101212.67
2019-02-12T15:06:55.005Z,101210.50
2019-02-12T15:09:27.726Z,101211.57
2019-02-12T15:12:00.192Z,101211.35
2019-02-12T15:14:32.368Z,101210.72
2019-02-12T15:17:04.741Z,101207.32
2019-02-12T15:19:36.966Z,101209.56
2019-02-12T15:22:09.451Z,101215.83
2019-02-12T15:24:41.667Z,101214.77
2019-02-12T15:27:14.074Z,101214.25
2019-02-12T15:29:46.370Z,101218.62
2019-02-12T15:32:18.767Z,101215.26
2019-02-12T15:34:51.051Z,101218.53
2019-02-12T15:37:23.373Z,101216.05
2019-02-12T15:39:55.767Z,101217.48
2019-02-12T15:42:28.468Z,101216.67
2019-02-12T15:45:00.897Z,101220.54
2019-02-12T15:47:33.152Z,101219.95
2019-02-12T15:50:05.592Z,101222.41
2019-02-12T15:52:37.769Z,101221.66
2019-02-12T15:55:11.666Z,101219.87
2019-02-12T15:57:45.945Z,101214.62
2019-02-12T16:00:20.430Z,101213.27
2019-02-12T16:02:54.509Z,101219.55
2019-02-12T16:05:26.712Z,101218.08
2019-02-12T16:08:02.282Z,101218.78
2019-02-12T16:10:34.689Z,101219.14
2019-02-12T16:13:07.192Z,101223.52
2019-02-12T16:15:39.422Z,101219.06
2019-02-12T16:18:11.771Z,101225.91
2019-02-12T16:20:44.044Z,101226.53
2019-02-12T16:23:16.355Z,101233.16
2019-02-12T16:25:48.596Z,101236.20
2019-02-12T16:28:20.930Z,101237.92
2019-02-12T16:30:53.622Z,101240.55
2019-02-12T16:33:25.929Z,101242.13
2019-02-12T16:35:58.252Z,101241.28
2019-02-12T16:38:30.481Z,101246.85
2019-02-12T16:41:02.732Z,101247.08
2019-02-12T16:43:35.068Z,101252.28
2019-02-12T16:46:13.243Z,101253.95
2019-02-12T16:48:45.598Z,101257.91
2019-02-12T16:51:17.937Z,101262.50
2019-02-12T16:53:50.237Z,101267.56
2019-02-12T16:56:22.711Z,101272.27
2019-02-12T16:59:02.122Z,101270.73
2019-02-12T17:01:28.735Z,101277.36
2019-02-12T17:04:00.978Z,101279.59
2019-02-12T17:06:33.439Z,101280.53
2019-02-12T17:09:06.322Z,101293.05
2019-02-12T17:11:38.998Z,101296.65
2019-02-12T17:14:11.144Z,101293.95
2019-02-12T17:16:43.346Z,101295.22
2019-02-12T17:19:15.587Z,101291.61
2019-02-12T17:21:49.186Z,101295.05
2019-02-12T17:24:21.616Z,101301.18
2019-02-12T17:26:53.933Z,101310.16
2019-02-12T17:29:26.154Z,101311.43
2019-02-12T17:31:58.787Z,101310.11
2019-02-12T17:34:30.937Z,101313.08
2019-02-12T17:37:03.142Z,101314.84
2019-02-12T17:39:35.302Z,101313.03
2019-02-12T17:42:07.465Z,101312.06
2019-02-12T17:44:39.964Z,101316.17
2019-02-12T17:47:12.256Z,101324.83
2019-02-12T17:49:44.576Z,101327.09
2019-02-12T17:52:16.744Z,101322.58
2019-02-12T17:54:49.043Z,101323.70
2019-02-12T17:57:21.264Z,101328.53
2019-02-12T17:59:53.550Z,101329.04
2019-02-12T18:02:25.917Z,101333.33
2019-02-12T18:04:58.055Z,101335.91
2019-02-12T18:07:30.490Z,101337.55
2019-02-12T18:10:02.634Z,101337.88
2019-02-12T18:12:35.930Z,101335.61
2019-02-12T18:15:09.060Z,101337.50
2019-02-12T18:17:41.340Z,101338.02
2019-02-12T18:20:13.745Z,101334.87
2019-02-12T18:22:46.123Z,101335.17
2019-02-12T18:25:18.337Z,101334.01
2019-02-12T18:27:50.645Z,101343.45
2019-02-12T18:30:22.796Z,101350.59
2019-02-12T18:32:54.999Z,101343.70
2019-02-12T18:35:27.213Z,101341.27
2019-02-12T18:37:59.471Z,101340.67
2019-02-12T18:40:31.621Z,101342.95
2019-02-12T18:43:04.007Z,101349.19
2019-02-12T18:45:36.155Z,101352.18
2019-02-12T18:48:08.379Z,101355.42
2019-02-12T18:50:41.710Z,101356.13
2019-02-12T18:53:14.010Z,101359.31
2019-02-12T18:55:46.282Z,101362.69
2019-02-12T18:58:18.905Z,101362.60
2019-02-12T19:00:51.491Z,101363.22
2019-02-12T19:03:24.907Z,101360.42
2019-02-12T19:05:57.113Z,101373.84
2019-02-12T19:08:29.447Z,101373.36
2019-02-12T19:11:01.580Z,101373.81
2019-02-12T19:13:33.829Z,101380.83
2019-02-12T19:16:07.127Z,101381.97
2019-02-12T19:18:39.217Z,101377.66
2019-02-12T19:21:12.620Z,101371.11
2019-02-12T19:23:45.027Z,101365.87
2019-02-12T19:26:17.221Z,101374.70
2019-02-12T19:28:49.442Z,101374.31
2019-02-12T19:31:21.584Z,101377.39
2019-02-12T19:33:53.811Z,101377.73
2019-02-12T19:36:25.937Z,101381.86
2019-02-12T19:38:58.127Z,101382.81
2019-02-12T19:41:30.190Z,101386.17
2019-02-12T19:44:02.394Z,101387.15
2019-02-12T19:46:34.526Z,101383.80
2019-02-12T19:49:06.706Z,101385.16
2019-02-12T19:51:38.833Z,101388.42
2019-02-12T19:54:11.209Z,101393.83
2019-02-12T19:56:43.410Z,101395.69
2019-02-12T19:59:15.604Z,101388.83
2019-02-12T20:01:47.809Z,101394.21
2019-02-12T20:04:20.477Z,101403.10
2019-02-12T20:06:52.685Z,101404.16
2019-02-12T20:09:24.931Z,101411.77
2019-02-12T20:11:57.175Z,101392.55
2019-02-12T20:14:29.982Z,101395.17
2019-02-12T20:17:02.111Z,101394.05
2019-02-12T20:19:34.269Z,101398.51
2019-02-12T20:22:06.568Z,101393.96
2019-02-12T20:24:38.726Z,101401.22
2019-02-12T20:27:10.881Z,101399.39
2019-02-12T20:29:43.113Z,101402.00
2019-02-12T20:32:15.288Z,101414.23
2019-02-12T20:34:47.428Z,101413.80
2019-02-12T20:37:19.592Z,101418.55
2019-02-12T20:39:51.809Z,101432.90
2019-02-12T20:42:25.044Z,101429.56
2019-02-12T20:44:57.191Z,101428.80
2019-02-12T20:47:29.411Z,101427.36
2019-02-12T20:50:01.680Z,101426.04
2019-02-12T20:52:34.133Z,101425.30
2019-02-12T20:55:06.930Z,101424.58
2019-02-12T20:57:39.181Z,101424.31
2019-02-12T21:00:17.453Z,101416.73
2019-02-12T21:02:49.604Z,101416.86
2019-02-12T21:05:21.753Z,101411.27
2019-02-12T21:07:53.925Z,101409.09
2019-02-12T21:10:26.179Z,101415.58
2019-02-12T21:12:58.481Z,101414.79
2019-02-12T21:15:30.774Z,101415.55
2019-02-12T21:18:03.045Z,101416.58
2019-02-12T21:20:35.245Z,101420.98
2019-02-12T21:23:07.582Z,101421.09
2019-02-12T21:25:39.792Z,101419.69
2019-02-12T21:28:12.191Z,101421.91
2019-02-12T21:30:44.329Z,101418.34
2019-02-12T21:33:16.531Z,101421.47
2019-02-12T21:35:48.650Z,101415.12
2019-02-12T21:38:21.224Z,101413.59
2019-02-12T21:40:53.376Z,101419.87
2019-02-12T21:43:25.620Z,101423.59
2019-02-12T21:45:57.770Z,101425.59
2019-02-12T21:48:29.942Z,101424.38
2019-02-12T21:51:02.174Z,101421.32
2019-02-12T21:53:34.332Z,101423.86
2019-02-12T21:56:06.486Z,101429.48
2019-02-12T21:58:38.652Z,101429.61
2019-02-12T22:01:10.849Z,101440.55
2019-02-12T22:03:43.206Z,101441.48
2019-02-12T22:06:15.395Z,101429.23
2019-02-12T22:08:48.189Z,101422.05
2019-02-12T22:11:20.260Z,101413.76
2019-02-12T22:13:52.432Z,101420.09
2019-02-12T22:16:24.648Z,101418.72
2019-02-12T22:18:56.788Z,101410.73
2019-02-12T22:21:28.941Z,101417.53
2019-02-12T22:24:01.087Z,101417.96
2019-02-12T22:26:33.402Z,101419.75
2019-02-12T22:29:06.376Z,101429.63
2019-02-12T22:31:38.617Z,101446.08
2019-02-12T22:34:10.843Z,101442.23
2019-02-12T22:36:43.004Z,101434.70
2019-02-12T22:39:15.147Z,101422.59
2019-02-12T22:41:47.310Z,101427.13
2019-02-12T22:44:19.534Z,101431.13
2019-02-12T22:46:51.691Z,101435.33
2019-02-12T22:49:23.760Z,101435.82
2019-02-12T22:51:56.073Z,101433.98
2019-02-12T22:54:28.328Z,101437.45
2019-02-12T22:57:00.513Z,101440.30
2019-02-12T22:59:32.759Z,101434.61
2019-02-12T23:02:04.955Z,101437.78
2019-02-12T23:04:37.172Z,101445.33
2019-02-12T23:07:09.485Z,101456.59
2019-02-12T23:09:41.778Z,101448.47
2019-02-12T23:12:15.017Z,101453.16
2019-02-12T23:14:47.166Z,101453.06
2019-02-12T23:17:19.352Z,101443.54
2019-02-12T23:19:51.491Z,101438.47
2019-02-12T23:22:23.768Z,101436.84
2019-02-12T23:24:55.991Z,101431.78
2019-02-12T23:27:28.233Z,101423.29
2019-02-12T23:30:00.548Z,101419.59
2019-02-12T23:32:32.880Z,101428.55
2019-02-12T23:35:05.114Z,101432.28
2019-02-12T23:37:37.467Z,101440.98
2019-02-12T23:40:09.689Z,101444.26
2019-02-12T23:42:41.873Z,101445.04
2019-02-12T23:45:14.098Z,101443.25
2019-02-12T23:47:46.339Z,101454.27
2019-02-12T23:50:18.479Z,101453.02
2019-02-12T23:52:50.665Z,101453.11
2019-02-12T23:55:22.810Z,101449.47
2019-02-12T23:57:54.984Z,101455.09
